sensor_id;sensor_type;location;lat;lon;timestamp;temperature;humidity
5138;DHT22;53959;53.626;11.410;2022-08-19T00:01:15;20.60;99.90
5138;DHT22;53959;53.626;11.410;2022-08-19T00:03:41;20.50;99.90
5138;DHT22;53959;53.626;11.410;2022-08-19T00:06:06;20.50;99.90
5138;DHT22;53959;53.626;11.410;2022-08-19T00:08:32;20.50;99.90
5138;DHT22;53959;53.626;11.410;2022-08-19T00:10:57;20.60;99.90
5138;DHT22;53959;53.626;11.410;2022-08-19T00:13:23;20.40;99.90
5138;DHT22;53959;53.626;11.410;2022-08-19T00:15:48;20.40;99.90
5138;DHT22;53959;53.626;11.410;2022-08-19T00:18:14;20.40;99.90
5138;DHT22;53959;53.626;11.410;2022-08-19T00:20:39;20.40;99.90
5138;DHT22;53959;53.626;11.410;2022-08-19T00:23:06;20.30;99.90
5138;DHT22;53959;53.626;11.410;2022-08-19T00:25:32;20.30;99.90
5138;DHT22;53959;53.626;11.410;2022-08-19T00:27:58;20.30;99.90
5138;DHT22;53959;53.626;11.410;2022-08-19T00:30:24;20.10;99.90
5138;DHT22;53959;53.626;11.410;2022-08-19T00:32:51;20.10;99.90
5138;DHT22;53959;53.626;11.410;2022-08-19T00:35:16;20.10;99.90
5138;DHT22;53959;53.626;11.410;2022-08-19T00:37:42;20.00;99.90
5138;DHT22;53959;53.626;11.410;2022-08-19T00:40:10;20.00;99.90
5138;DHT22;53959;53.626;11.410;2022-08-19T00:42:36;20.10;99.90
5138;DHT22;53959;53.626;11.410;2022-08-19T00:45:11;20.00;99.90
5138;DHT22;53959;53.626;11.410;2022-08-19T00:47:37;20.00;99.90
5138;DHT22;53959;53.626;11.410;2022-08-19T00:50:03;20.00;99.90
5138;DHT22;53959;53.626;11.410;2022-08-19T00:52:34;20.00;99.90
5138;DHT22;53959;53.626;11.410;2022-08-19T00:55:00;20.00;99.90
5138;DHT22;53959;53.626;11.410;2022-08-19T00:57:35;19.80;99.90
5138;DHT22;53959;53.626;11.410;2022-08-19T01:00:06;19.90;99.90
5138;DHT22;53959;53.626;11.410;2022-08-19T01:02:32;20.00;99.90
5138;DHT22;53959;53.626;11.410;2022-08-19T01:05:01;20.00;99.90
5138;DHT22;53959;53.626;11.410;2022-08-19T01:07:27;20.00;99.90
5138;DHT22;53959;53.626;11.410;2022-08-19T01:09:53;20.10;99.90
5138;DHT22;53959;53.626;11.410;2022-08-19T01:12:19;20.00;99.90
5138;DHT22;53959;53.626;11.410;2022-08-19T01:14:45;19.90;99.90
5138;DHT22;53959;53.626;11.410;2022-08-19T01:17:12;19.90;99.90
5138;DHT22;53959;53.626;11.410;2022-08-19T01:19:41;19.80;99.90
5138;DHT22;53959;53.626;11.410;2022-08-19T01:22:40;19.80;99.90
5138;DHT22;53959;53.626;11.410;2022-08-19T01:25:07;20.00;99.90
5138;DHT22;53959;53.626;11.410;2022-08-19T01:27:41;20.10;99.90
5138;DHT22;53959;53.626;11.410;2022-08-19T01:30:09;20.00;99.90
5138;DHT22;53959;53.626;11.410;2022-08-19T01:32:34;20.10;99.90
5138;DHT22;53959;53.626;11.410;2022-08-19T01:35:02;20.00;99.90
5138;DHT22;53959;53.626;11.410;2022-08-19T01:37:28;19.80;99.90
5138;DHT22;53959;53.626;11.410;2022-08-19T01:39:55;19.80;99.90
5138;DHT22;53959;53.626;11.410;2022-08-19T01:42:21;19.70;99.90
5138;DHT22;53959;53.626;11.410;2022-08-19T01:44:47;19.70;99.90
5138;DHT22;53959;53.626;11.410;2022-08-19T01:47:13;19.80;99.90
5138;DHT22;53959;53.626;11.410;2022-08-19T01:49:38;19.90;99.90
5138;DHT22;53959;53.626;11.410;2022-08-19T01:52:05;19.80;99.90
5138;DHT22;53959;53.626;11.410;2022-08-19T01:54:30;19.70;99.90
5138;DHT22;53959;53.626;11.410;2022-08-19T01:57:08;19.90;99.90
5138;DHT22;53959;53.626;11.410;2022-08-19T01:59:34;19.90;99.90
5138;DHT22;53959;53.626;11.410;2022-08-19T02:02:03;19.90;99.90
5138;DHT22;53959;53.626;11.410;2022-08-19T02:04:32;19.80;99.90
5138;DHT22;53959;53.626;11.410;2022-08-19T02:06:59;19.80;99.90
5138;DHT22;53959;53.626;11.410;2022-08-19T02:09:25;19.80;99.90
5138;DHT22;53959;53.626;11.410;2022-08-19T02:11:50;19.90;99.90
5138;DHT22;53959;53.626;11.410;2022-08-19T02:14:16;19.80;99.90
5138;DHT22;53959;53.626;11.410;2022-08-19T02:16:41;19.80;99.90
5138;DHT22;53959;53.626;11.410;2022-08-19T02:19:07;19.80;99.90
5138;DHT22;53959;53.626;11.410;2022-08-19T02:21:32;19.80;99.90
5138;DHT22;53959;53.626;11.410;2022-08-19T02:23:58;19.70;99.90
5138;DHT22;53959;53.626;11.410;2022-08-19T02:26:24;19.70;99.90
5138;DHT22;53959;53.626;11.410;2022-08-19T02:28:52;19.60;99.90
5138;DHT22;53959;53.626;11.410;2022-08-19T02:31:20;19.60;99.90
5138;DHT22;53959;53.626;11.410;2022-08-19T02:33:47;19.70;99.90
5138;DHT22;53959;53.626;11.410;2022-08-19T02:36:15;19.80;99.90
5138;DHT22;53959;53.626;11.410;2022-08-19T02:38:41;19.70;99.90
5138;DHT22;53959;53.626;11.410;2022-08-19T02:41:11;19.80;99.90
5138;DHT22;53959;53.626;11.410;2022-08-19T02:43:37;19.80;99.90
5138;DHT22;53959;53.626;11.410;2022-08-19T02:46:24;19.70;99.90
5138;DHT22;53959;53.626;11.410;2022-08-19T02:48:55;19.70;99.90
5138;DHT22;53959;53.626;11.410;2022-08-19T02:51:30;19.70;99.90
5138;DHT22;53959;53.626;11.410;2022-08-19T02:53:56;19.50;99.90
5138;DHT22;53959;53.626;11.410;2022-08-19T02:56:22;19.60;99.90
5138;DHT22;53959;53.626;11.410;2022-08-19T02:58:48;19.60;99.90
5138;DHT22;53959;53.626;11.410;2022-08-19T03:01:28;19.50;99.90
5138;DHT22;53959;53.626;11.410;2022-08-19T03:03:58;19.60;99.90
5138;DHT22;53959;53.626;11.410;2022-08-19T03:06:25;19.50;99.90
5138;DHT22;53959;53.626;11.410;2022-08-19T03:08:51;19.50;99.90
5138;DHT22;53959;53.626;11.410;2022-08-19T03:11:27;19.50;99.90
5138;DHT22;53959;53.626;11.410;2022-08-19T03:13:53;19.40;99.90
5138;DHT22;53959;53.626;11.410;2022-08-19T03:16:21;19.50;99.90
5138;DHT22;53959;53.626;11.410;2022-08-19T03:18:47;19.50;99.90
5138;DHT22;53959;53.626;11.410;2022-08-19T03:21:17;19.40;99.90
5138;DHT22;53959;53.626;11.410;2022-08-19T03:23:44;19.40;99.90
5138;DHT22;53959;53.626;11.410;2022-08-19T03:26:09;19.40;99.90
5138;DHT22;53959;53.626;11.410;2022-08-19T03:28:35;19.40;99.90
5138;DHT22;53959;53.626;11.410;2022-08-19T03:31:05;19.50;99.90
5138;DHT22;53959;53.626;11.410;2022-08-19T03:33:32;19.40;99.90
5138;DHT22;53959;53.626;11.410;2022-08-19T03:36:02;19.40;99.90
5138;DHT22;53959;53.626;11.410;2022-08-19T03:38:28;19.30;99.90
5138;DHT22;53959;53.626;11.410;2022-08-19T03:40:53;19.50;99.90
5138;DHT22;53959;53.626;11.410;2022-08-19T03:43:19;19.50;99.90
5138;DHT22;53959;53.626;11.410;2022-08-19T03:45:44;19.50;99.90
5138;DHT22;53959;53.626;11.410;2022-08-19T03:48:10;19.50;99.90
5138;DHT22;53959;53.626;11.410;2022-08-19T03:50:39;19.30;99.90
5138;DHT22;53959;53.626;11.410;2022-08-19T03:53:06;19.30;99.90
5138;DHT22;53959;53.626;11.410;2022-08-19T03:55:32;19.30;99.90
5138;DHT22;53959;53.626;11.410;2022-08-19T03:57:58;19.40;99.90
5138;DHT22;53959;53.626;11.410;2022-08-19T04:00:23;19.20;99.90
5138;DHT22;53959;53.626;11.410;2022-08-19T04:02:49;19.40;99.90
5138;DHT22;53959;53.626;11.410;2022-08-19T04:05:14;19.30;99.90
5138;DHT22;53959;53.626;11.410;2022-08-19T04:07:40;19.40;99.90
5138;DHT22;53959;53.626;11.410;2022-08-19T04:10:06;19.40;99.90
5138;DHT22;53959;53.626;11.410;2022-08-19T04:12:31;19.30;99.90
5138;DHT22;53959;53.626;11.410;2022-08-19T04:14:57;19.40;99.90
5138;DHT22;53959;53.626;11.410;2022-08-19T04:17:23;19.40;99.90
5138;DHT22;53959;53.626;11.410;2022-08-19T04:19:49;19.40;99.90
5138;DHT22;53959;53.626;11.410;2022-08-19T04:22:15;19.40;99.90
5138;DHT22;53959;53.626;11.410;2022-08-19T04:24:40;19.50;99.90
5138;DHT22;53959;53.626;11.410;2022-08-19T04:27:06;19.40;99.90
5138;DHT22;53959;53.626;11.410;2022-08-19T04:29:32;19.40;99.90
5138;DHT22;53959;53.626;11.410;2022-08-19T04:31:58;19.40;99.90
5138;DHT22;53959;53.626;11.410;2022-08-19T04:34:26;19.40;99.90
5138;DHT22;53959;53.626;11.410;2022-08-19T04:36:54;19.40;99.90
5138;DHT22;53959;53.626;11.410;2022-08-19T04:39:24;19.40;99.90
5138;DHT22;53959;53.626;11.410;2022-08-19T04:42:09;19.50;99.90
5138;DHT22;53959;53.626;11.410;2022-08-19T04:44:54;19.30;99.90
5138;DHT22;53959;53.626;11.410;2022-08-19T04:47:19;19.30;99.90
5138;DHT22;53959;53.626;11.410;2022-08-19T04:49:45;19.30;99.90
5138;DHT22;53959;53.626;11.410;2022-08-19T04:52:11;19.40;99.90
5138;DHT22;53959;53.626;11.410;2022-08-19T04:54:36;19.50;99.90
5138;DHT22;53959;53.626;11.410;2022-08-19T04:57:02;19.30;99.90
5138;DHT22;53959;53.626;11.410;2022-08-19T04:59:31;19.40;99.90
5138;DHT22;53959;53.626;11.410;2022-08-19T05:01:57;19.50;99.90
5138;DHT22;53959;53.626;11.410;2022-08-19T05:04:23;19.50;99.90
5138;DHT22;53959;53.626;11.410;2022-08-19T05:06:49;19.50;99.90
5138;DHT22;53959;53.626;11.410;2022-08-19T05:09:16;19.50;99.90
5138;DHT22;53959;53.626;11.410;2022-08-19T05:11:43;19.50;99.90
5138;DHT22;53959;53.626;11.410;2022-08-19T05:14:10;19.50;99.90
5138;DHT22;53959;53.626;11.410;2022-08-19T05:16:38;19.50;99.90
5138;DHT22;53959;53.626;11.410;2022-08-19T05:19:04;19.70;99.90
5138;DHT22;53959;53.626;11.410;2022-08-19T05:21:48;19.60;99.90
5138;DHT22;53959;53.626;11.410;2022-08-19T05:24:33;19.50;99.90
5138;DHT22;53959;53.626;11.410;2022-08-19T05:27:00;19.70;99.90
5138;DHT22;53959;53.626;11.410;2022-08-19T05:29:28;19.50;99.90
5138;DHT22;53959;53.626;11.410;2022-08-19T05:31:55;19.70;99.90
5138;DHT22;53959;53.626;11.410;2022-08-19T05:34:22;19.70;99.90
5138;DHT22;53959;53.626;11.410;2022-08-19T05:36:51;19.50;99.90
5138;DHT22;53959;53.626;11.410;2022-08-19T05:39:20;19.60;99.90
5138;DHT22;53959;53.626;11.410;2022-08-19T05:41:50;19.60;99.90
5138;DHT22;53959;53.626;11.410;2022-08-19T05:44:16;19.80;99.90
5138;DHT22;53959;53.626;11.410;2022-08-19T05:46:44;19.80;99.90
5138;DHT22;53959;53.626;11.410;2022-08-19T05:49:13;19.70;99.90
5138;DHT22;53959;53.626;11.410;2022-08-19T05:51:39;19.70;99.90
5138;DHT22;53959;53.626;11.410;2022-08-19T05:54:05;19.70;99.90
5138;DHT22;53959;53.626;11.410;2022-08-19T05:56:32;19.70;99.90
5138;DHT22;53959;53.626;11.410;2022-08-19T05:59:00;19.80;99.90
5138;DHT22;53959;53.626;11.410;2022-08-19T06:01:26;19.70;99.90
5138;DHT22;53959;53.626;11.410;2022-08-19T06:03:52;19.80;99.90
5138;DHT22;53959;53.626;11.410;2022-08-19T06:06:19;19.80;99.90
5138;DHT22;53959;53.626;11.410;2022-08-19T06:08:45;19.70;99.90
5138;DHT22;53959;53.626;11.410;2022-08-19T06:11:33;19.70;99.90
5138;DHT22;53959;53.626;11.410;2022-08-19T06:14:05;19.70;99.90
5138;DHT22;53959;53.626;11.410;2022-08-19T06:16:33;19.80;99.90
5138;DHT22;53959;53.626;11.410;2022-08-19T06:19:03;19.80;99.90
5138;DHT22;53959;53.626;11.410;2022-08-19T06:21:29;19.80;99.90
5138;DHT22;53959;53.626;11.410;2022-08-19T06:23:56;19.90;99.90
5138;DHT22;53959;53.626;11.410;2022-08-19T06:26:22;19.90;99.90
5138;DHT22;53959;53.626;11.410;2022-08-19T06:28:49;20.00;99.90
5138;DHT22;53959;53.626;11.410;2022-08-19T06:31:18;19.90;99.90
5138;DHT22;53959;53.626;11.410;2022-08-19T06:33:46;19.90;99.90
5138;DHT22;53959;53.626;11.410;2022-08-19T06:36:26;20.00;99.90
5138;DHT22;53959;53.626;11.410;2022-08-19T06:38:57;20.10;99.90
5138;DHT22;53959;53.626;11.410;2022-08-19T06:41:27;20.00;99.90
5138;DHT22;53959;53.626;11.410;2022-08-19T06:43:54;20.10;99.90
5138;DHT22;53959;53.626;11.410;2022-08-19T06:46:20;20.10;99.90
5138;DHT22;53959;53.626;11.410;2022-08-19T06:48:46;20.10;99.90
5138;DHT22;53959;53.626;11.410;2022-08-19T06:51:14;20.00;99.90
5138;DHT22;53959;53.626;11.410;2022-08-19T06:53:44;20.20;99.90
5138;DHT22;53959;53.626;11.410;2022-08-19T06:56:16;20.10;99.90
5138;DHT22;53959;53.626;11.410;2022-08-19T06:58:42;20.10;99.90
5138;DHT22;53959;53.626;11.410;2022-08-19T07:01:08;20.10;99.90
5138;DHT22;53959;53.626;11.410;2022-08-19T07:03:36;20.10;99.90
5138;DHT22;53959;53.626;11.410;2022-08-19T07:06:07;20.00;99.90
5138;DHT22;53959;53.626;11.410;2022-08-19T07:08:33;20.00;99.90
5138;DHT22;53959;53.626;11.410;2022-08-19T07:10:59;20.00;99.90
5138;DHT22;53959;53.626;11.410;2022-08-19T07:13:25;20.10;99.90
5138;DHT22;53959;53.626;11.410;2022-08-19T07:15:51;20.10;99.90
5138;DHT22;53959;53.626;11.410;2022-08-19T07:18:19;20.20;99.90
5138;DHT22;53959;53.626;11.410;2022-08-19T07:20:45;20.20;99.90
5138;DHT22;53959;53.626;11.410;2022-08-19T07:23:11;20.20;99.90
5138;DHT22;53959;53.626;11.410;2022-08-19T07:25:38;20.10;99.90
5138;DHT22;53959;53.626;11.410;2022-08-19T07:28:03;19.70;99.90
5138;DHT22;53959;53.626;11.410;2022-08-19T07:30:29;20.10;99.90
5138;DHT22;53959;53.626;11.410;2022-08-19T07:32:55;20.10;99.90
5138;DHT22;53959;53.626;11.410;2022-08-19T07:35:22;20.20;99.90
5138;DHT22;53959;53.626;11.410;2022-08-19T07:37:49;20.00;99.90
5138;DHT22;53959;53.626;11.410;2022-08-19T07:40:15;20.20;99.90
5138;DHT22;53959;53.626;11.410;2022-08-19T07:42:41;20.10;99.90
5138;DHT22;53959;53.626;11.410;2022-08-19T07:45:08;20.20;99.90
5138;DHT22;53959;53.626;11.410;2022-08-19T07:47:34;20.30;99.90
5138;DHT22;53959;53.626;11.410;2022-08-19T07:50:00;20.40;99.90
5138;DHT22;53959;53.626;11.410;2022-08-19T07:52:25;20.30;99.90
5138;DHT22;53959;53.626;11.410;2022-08-19T07:54:51;20.30;99.90
5138;DHT22;53959;53.626;11.410;2022-08-19T07:57:16;20.40;99.90
5138;DHT22;53959;53.626;11.410;2022-08-19T07:59:44;20.40;99.90
5138;DHT22;53959;53.626;11.410;2022-08-19T08:02:09;20.30;99.90
5138;DHT22;53959;53.626;11.410;2022-08-19T08:04:35;20.30;99.90
5138;DHT22;53959;53.626;11.410;2022-08-19T08:07:19;20.30;99.90
5138;DHT22;53959;53.626;11.410;2022-08-19T08:10:06;20.40;99.90
5138;DHT22;53959;53.626;11.410;2022-08-19T08:12:36;20.30;99.90
5138;DHT22;53959;53.626;11.410;2022-08-19T08:15:12;20.30;99.90
5138;DHT22;53959;53.626;11.410;2022-08-19T08:17:42;20.40;99.90
5138;DHT22;53959;53.626;11.410;2022-08-19T08:20:08;20.40;99.90
5138;DHT22;53959;53.626;11.410;2022-08-19T08:22:34;20.40;99.90
5138;DHT22;53959;53.626;11.410;2022-08-19T08:25:21;20.50;99.90
5138;DHT22;53959;53.626;11.410;2022-08-19T08:27:48;20.50;99.90
5138;DHT22;53959;53.626;11.410;2022-08-19T08:30:20;20.50;99.90
5138;DHT22;53959;53.626;11.410;2022-08-19T08:32:47;20.40;99.90
5138;DHT22;53959;53.626;11.410;2022-08-19T08:35:15;20.30;99.90
5138;DHT22;53959;53.626;11.410;2022-08-19T08:37:42;20.40;99.90
5138;DHT22;53959;53.626;11.410;2022-08-19T08:40:48;20.50;99.90
5138;DHT22;53959;53.626;11.410;2022-08-19T08:45:54;20.60;99.90
5138;DHT22;53959;53.626;11.410;2022-08-19T08:48:44;20.70;99.90
5138;DHT22;53959;53.626;11.410;2022-08-19T08:51:18;20.70;99.90
5138;DHT22;53959;53.626;11.410;2022-08-19T08:53:47;20.70;99.90
5138;DHT22;53959;53.626;11.410;2022-08-19T08:56:13;20.60;99.90
5138;DHT22;53959;53.626;11.410;2022-08-19T08:58:49;20.60;99.90
5138;DHT22;53959;53.626;11.410;2022-08-19T09:01:16;20.60;99.90
5138;DHT22;53959;53.626;11.410;2022-08-19T09:03:42;20.60;99.90
5138;DHT22;53959;53.626;11.410;2022-08-19T09:08:53;20.70;99.90
5138;DHT22;53959;53.626;11.410;2022-08-19T09:14:29;20.70;99.90
5138;DHT22;53959;53.626;11.410;2022-08-19T09:16:58;20.60;99.90
5138;DHT22;53959;53.626;11.410;2022-08-19T09:19:24;20.60;99.90
5138;DHT22;53959;53.626;11.410;2022-08-19T09:21:50;20.70;99.90
5138;DHT22;53959;53.626;11.410;2022-08-19T09:24:15;20.70;99.90
5138;DHT22;53959;53.626;11.410;2022-08-19T09:26:41;20.70;99.90
5138;DHT22;53959;53.626;11.410;2022-08-19T09:29:09;20.60;99.90
5138;DHT22;53959;53.626;11.410;2022-08-19T09:31:36;20.80;99.90
5138;DHT22;53959;53.626;11.410;2022-08-19T09:34:02;20.70;99.90
5138;DHT22;53959;53.626;11.410;2022-08-19T09:36:30;20.70;99.90
5138;DHT22;53959;53.626;11.410;2022-08-19T09:38:58;20.60;99.90
5138;DHT22;53959;53.626;11.410;2022-08-19T09:41:25;20.80;99.90
5138;DHT22;53959;53.626;11.410;2022-08-19T09:43:53;20.90;99.90
5138;DHT22;53959;53.626;11.410;2022-08-19T09:46:22;20.90;99.90
5138;DHT22;53959;53.626;11.410;2022-08-19T09:48:49;20.80;99.90
5138;DHT22;53959;53.626;11.410;2022-08-19T09:51:19;20.80;99.90
5138;DHT22;53959;53.626;11.410;2022-08-19T09:53:45;20.80;99.90
5138;DHT22;53959;53.626;11.410;2022-08-19T09:56:12;20.90;99.90
5138;DHT22;53959;53.626;11.410;2022-08-19T09:58:39;20.90;99.90
5138;DHT22;53959;53.626;11.410;2022-08-19T10:01:06;20.90;99.90
5138;DHT22;53959;53.626;11.410;2022-08-19T10:03:34;20.90;99.90
5138;DHT22;53959;53.626;11.410;2022-08-19T10:06:02;20.90;99.90
5138;DHT22;53959;53.626;11.410;2022-08-19T10:08:31;20.90;99.90
5138;DHT22;53959;53.626;11.410;2022-08-19T10:10:57;20.90;99.90
5138;DHT22;53959;53.626;11.410;2022-08-19T10:13:25;20.90;99.90
5138;DHT22;53959;53.626;11.410;2022-08-19T10:15:53;20.80;99.90
5138;DHT22;53959;53.626;11.410;2022-08-19T10:18:20;20.90;99.90
5138;DHT22;53959;53.626;11.410;2022-08-19T10:20:48;20.90;99.90
5138;DHT22;53959;53.626;11.410;2022-08-19T10:23:14;21.10;99.90
5138;DHT22;53959;53.626;11.410;2022-08-19T10:25:43;21.00;99.90
5138;DHT22;53959;53.626;11.410;2022-08-19T10:28:09;21.00;99.90
5138;DHT22;53959;53.626;11.410;2022-08-19T10:30:40;21.00;99.90
5138;DHT22;53959;53.626;11.410;2022-08-19T10:33:06;21.00;99.90
5138;DHT22;53959;53.626;11.410;2022-08-19T10:35:32;20.90;99.90
5138;DHT22;53959;53.626;11.410;2022-08-19T10:37:58;20.80;99.90
5138;DHT22;53959;53.626;11.410;2022-08-19T10:40:26;21.00;99.90
5138;DHT22;53959;53.626;11.410;2022-08-19T10:42:52;21.00;99.90
5138;DHT22;53959;53.626;11.410;2022-08-19T10:45:18;21.10;99.90
5138;DHT22;53959;53.626;11.410;2022-08-19T10:47:43;20.90;99.90
5138;DHT22;53959;53.626;11.410;2022-08-19T10:50:09;21.10;99.90
5138;DHT22;53959;53.626;11.410;2022-08-19T10:52:53;21.30;99.90
5138;DHT22;53959;53.626;11.410;2022-08-19T10:55:22;21.20;99.90
5138;DHT22;53959;53.626;11.410;2022-08-19T10:58:17;21.40;99.90
5138;DHT22;53959;53.626;11.410;2022-08-19T11:00:55;21.30;99.90
5138;DHT22;53959;53.626;11.410;2022-08-19T11:03:22;21.20;99.90
5138;DHT22;53959;53.626;11.410;2022-08-19T11:06:00;21.20;99.90
5138;DHT22;53959;53.626;11.410;2022-08-19T11:08:26;21.40;99.90
5138;DHT22;53959;53.626;11.410;2022-08-19T11:10:53;21.40;99.90
5138;DHT22;53959;53.626;11.410;2022-08-19T11:13:33;21.30;99.90
5138;DHT22;53959;53.626;11.410;2022-08-19T11:16:05;21.40;99.90
5138;DHT22;53959;53.626;11.410;2022-08-19T11:18:32;21.30;99.90
5138;DHT22;53959;53.626;11.410;2022-08-19T11:21:15;21.20;99.90
5138;DHT22;53959;53.626;11.410;2022-08-19T11:23:42;21.00;99.90
5138;DHT22;53959;53.626;11.410;2022-08-19T11:26:09;21.10;99.90
5138;DHT22;53959;53.626;11.410;2022-08-19T11:28:35;21.10;99.90
5138;DHT22;53959;53.626;11.410;2022-08-19T11:31:01;20.90;99.90
5138;DHT22;53959;53.626;11.410;2022-08-19T11:33:29;21.00;99.90
5138;DHT22;53959;53.626;11.410;2022-08-19T11:35:58;21.00;99.90
5138;DHT22;53959;53.626;11.410;2022-08-19T11:38:25;21.00;99.90
5138;DHT22;53959;53.626;11.410;2022-08-19T11:40:55;21.20;99.90
5138;DHT22;53959;53.626;11.410;2022-08-19T11:43:21;21.10;99.90
5138;DHT22;53959;53.626;11.410;2022-08-19T11:45:46;21.20;99.90
5138;DHT22;53959;53.626;11.410;2022-08-19T11:48:13;21.20;99.90
5138;DHT22;53959;53.626;11.410;2022-08-19T11:50:39;21.30;99.90
5138;DHT22;53959;53.626;11.410;2022-08-19T11:53:06;21.40;99.90
5138;DHT22;53959;53.626;11.410;2022-08-19T11:55:31;21.40;99.90
5138;DHT22;53959;53.626;11.410;2022-08-19T11:57:57;21.50;99.90
5138;DHT22;53959;53.626;11.410;2022-08-19T12:00:23;21.60;99.90
5138;DHT22;53959;53.626;11.410;2022-08-19T12:02:48;21.70;99.90
5138;DHT22;53959;53.626;11.410;2022-08-19T12:05:14;22.00;99.90
5138;DHT22;53959;53.626;11.410;2022-08-19T12:07:40;21.90;99.90
5138;DHT22;53959;53.626;11.410;2022-08-19T12:10:09;21.80;99.90
5138;DHT22;53959;53.626;11.410;2022-08-19T12:12:35;22.00;99.90
5138;DHT22;53959;53.626;11.410;2022-08-19T12:15:01;22.00;99.90
5138;DHT22;53959;53.626;11.410;2022-08-19T12:17:27;22.00;99.90
5138;DHT22;53959;53.626;11.410;2022-08-19T12:19:53;22.00;99.90
5138;DHT22;53959;53.626;11.410;2022-08-19T12:22:19;22.20;99.90
5138;DHT22;53959;53.626;11.410;2022-08-19T12:24:45;22.10;99.90
5138;DHT22;53959;53.626;11.410;2022-08-19T12:27:11;22.40;99.90
5138;DHT22;53959;53.626;11.410;2022-08-19T12:29:36;22.20;99.90
5138;DHT22;53959;53.626;11.410;2022-08-19T12:32:02;22.20;99.90
5138;DHT22;53959;53.626;11.410;2022-08-19T12:34:29;22.20;99.90
5138;DHT22;53959;53.626;11.410;2022-08-19T12:37:00;22.20;99.90
5138;DHT22;53959;53.626;11.410;2022-08-19T12:39:26;21.90;99.90
5138;DHT22;53959;53.626;11.410;2022-08-19T12:41:52;22.20;99.90
5138;DHT22;53959;53.626;11.410;2022-08-19T12:44:18;22.30;99.90
5138;DHT22;53959;53.626;11.410;2022-08-19T12:46:44;22.30;99.90
5138;DHT22;53959;53.626;11.410;2022-08-19T12:49:10;22.20;99.90
5138;DHT22;53959;53.626;11.410;2022-08-19T12:51:35;22.20;99.90
5138;DHT22;53959;53.626;11.410;2022-08-19T12:54:01;22.30;99.90
5138;DHT22;53959;53.626;11.410;2022-08-19T12:56:27;22.40;99.90
5138;DHT22;53959;53.626;11.410;2022-08-19T12:58:53;22.30;99.90
5138;DHT22;53959;53.626;11.410;2022-08-19T13:01:18;22.30;99.90
5138;DHT22;53959;53.626;11.410;2022-08-19T13:03:45;22.40;99.90
5138;DHT22;53959;53.626;11.410;2022-08-19T13:06:11;22.40;99.90
5138;DHT22;53959;53.626;11.410;2022-08-19T13:08:37;22.30;99.90
5138;DHT22;53959;53.626;11.410;2022-08-19T13:11:22;22.60;99.90
5138;DHT22;53959;53.626;11.410;2022-08-19T13:13:51;22.70;99.90
5138;DHT22;53959;53.626;11.410;2022-08-19T13:16:18;22.50;99.90
5138;DHT22;53959;53.626;11.410;2022-08-19T13:18:46;22.70;99.90
5138;DHT22;53959;53.626;11.410;2022-08-19T13:21:12;22.70;99.90
5138;DHT22;53959;53.626;11.410;2022-08-19T13:23:39;22.50;99.90
5138;DHT22;53959;53.626;11.410;2022-08-19T13:26:06;22.70;99.90
5138;DHT22;53959;53.626;11.410;2022-08-19T13:28:33;22.60;99.90
5138;DHT22;53959;53.626;11.410;2022-08-19T13:31:19;22.80;99.90
5138;DHT22;53959;53.626;11.410;2022-08-19T13:34:05;23.00;99.90
5138;DHT22;53959;53.626;11.410;2022-08-19T13:36:32;22.90;99.90
5138;DHT22;53959;53.626;11.410;2022-08-19T13:38:57;23.10;99.90
5138;DHT22;53959;53.626;11.410;2022-08-19T13:41:23;23.30;99.90
5138;DHT22;53959;53.626;11.410;2022-08-19T13:43:48;23.30;99.90
5138;DHT22;53959;53.626;11.410;2022-08-19T13:46:15;23.20;99.90
5138;DHT22;53959;53.626;11.410;2022-08-19T13:48:40;23.20;99.90
5138;DHT22;53959;53.626;11.410;2022-08-19T13:51:07;23.10;99.90
5138;DHT22;53959;53.626;11.410;2022-08-19T13:53:39;23.00;99.90
5138;DHT22;53959;53.626;11.410;2022-08-19T13:56:09;23.00;99.90
5138;DHT22;53959;53.626;11.410;2022-08-19T13:58:36;22.80;99.90
5138;DHT22;53959;53.626;11.410;2022-08-19T14:01:03;22.80;99.90
5138;DHT22;53959;53.626;11.410;2022-08-19T14:03:29;22.70;99.90
5138;DHT22;53959;53.626;11.410;2022-08-19T14:05:55;22.80;99.90
5138;DHT22;53959;53.626;11.410;2022-08-19T14:08:20;22.80;99.90
5138;DHT22;53959;53.626;11.410;2022-08-19T14:10:46;22.90;99.90
5138;DHT22;53959;53.626;11.410;2022-08-19T14:13:16;23.00;99.90
5138;DHT22;53959;53.626;11.410;2022-08-19T14:15:42;22.80;99.90
5138;DHT22;53959;53.626;11.410;2022-08-19T14:18:09;22.80;99.90
5138;DHT22;53959;53.626;11.410;2022-08-19T14:20:35;22.70;99.90
5138;DHT22;53959;53.626;11.410;2022-08-19T14:23:01;22.80;99.90
5138;DHT22;53959;53.626;11.410;2022-08-19T14:25:29;22.50;99.90
5138;DHT22;53959;53.626;11.410;2022-08-19T14:27:56;22.30;99.90
5138;DHT22;53959;53.626;11.410;2022-08-19T14:30:25;22.40;99.90
5138;DHT22;53959;53.626;11.410;2022-08-19T14:32:56;22.30;99.90
5138;DHT22;53959;53.626;11.410;2022-08-19T14:35:24;22.30;99.90
5138;DHT22;53959;53.626;11.410;2022-08-19T14:37:51;22.10;99.90
5138;DHT22;53959;53.626;11.410;2022-08-19T14:40:23;21.90;99.90
5138;DHT22;53959;53.626;11.410;2022-08-19T14:42:57;21.80;99.90
5138;DHT22;53959;53.626;11.410;2022-08-19T14:45:26;21.60;99.90
5138;DHT22;53959;53.626;11.410;2022-08-19T14:47:52;21.50;99.90
5138;DHT22;53959;53.626;11.410;2022-08-19T14:50:18;21.40;99.90
5138;DHT22;53959;53.626;11.410;2022-08-19T14:52:45;21.40;99.90
5138;DHT22;53959;53.626;11.410;2022-08-19T14:55:13;21.30;99.90
5138;DHT22;53959;53.626;11.410;2022-08-19T14:57:41;21.10;99.90
5138;DHT22;53959;53.626;11.410;2022-08-19T15:00:07;21.20;99.90
5138;DHT22;53959;53.626;11.410;2022-08-19T15:02:37;21.20;99.90
5138;DHT22;53959;53.626;11.410;2022-08-19T15:05:02;21.20;99.90
5138;DHT22;53959;53.626;11.410;2022-08-19T15:07:29;21.10;99.90
5138;DHT22;53959;53.626;11.410;2022-08-19T15:09:54;21.20;99.90
5138;DHT22;53959;53.626;11.410;2022-08-19T15:12:20;21.10;99.90
5138;DHT22;53959;53.626;11.410;2022-08-19T15:14:47;21.20;99.90
5138;DHT22;53959;53.626;11.410;2022-08-19T15:17:15;21.10;99.90
5138;DHT22;53959;53.626;11.410;2022-08-19T15:19:40;21.10;99.90
5138;DHT22;53959;53.626;11.410;2022-08-19T15:22:06;21.10;99.90
5138;DHT22;53959;53.626;11.410;2022-08-19T15:24:32;21.10;99.90
5138;DHT22;53959;53.626;11.410;2022-08-19T15:26:58;20.90;99.90
5138;DHT22;53959;53.626;11.410;2022-08-19T15:29:23;21.00;99.90
5138;DHT22;53959;53.626;11.410;2022-08-19T15:31:51;20.90;99.90
5138;DHT22;53959;53.626;11.410;2022-08-19T15:34:16;21.00;99.90
5138;DHT22;53959;53.626;11.410;2022-08-19T15:36:42;21.00;99.90
5138;DHT22;53959;53.626;11.410;2022-08-19T15:39:08;21.00;99.90
5138;DHT22;53959;53.626;11.410;2022-08-19T15:41:35;20.90;99.90
5138;DHT22;53959;53.626;11.410;2022-08-19T15:44:08;21.10;99.90